Time;durP1;ratioP1;P1;durP2;ratioP2;P2;SDS_P1;SDS_P2;PMS_P1;PMS_P2;Temp;Humidity;BMP_temperature;BMP_pressure;BME280_temperature;BME280_humidity;BME280_pressure;Samples;Min_cycle;Max_cycle;Signal;HPM_P1;HPM_P2
2022/10/20 00:00:54;;;;;;;11.60;8.73;;;11.30;1.00;;;;;;5080808;28;20468;-65
2022/10/20 00:03:22;;;;;;;10.40;8.60;;;11.30;1.00;;;;;;5080710;28;20539;-64
2022/10/20 00:05:51;;;;;;;9.53;8.33;;;11.30;1.00;;;;;;5080331;28;20500;-64
2022/10/20 00:08:19;;;;;;;12.53;8.30;;;11.30;1.00;;;;;;5080426;28;20555;-64
2022/10/20 00:10:54;;;;;;;12.97;9.63;;;11.30;1.00;;;;;;5080339;28;20457;-64
2022/10/20 00:13:21;;;;;;;10.97;8.60;;;11.30;1.00;;;;;;5080437;28;20431;-64
2022/10/20 00:15:49;;;;;;;12.70;9.30;;;11.30;1.00;;;;;;5080159;28;20467;-65
2022/10/20 00:18:16;;;;;;;12.87;9.43;;;11.30;1.00;;;;;;5080351;28;20476;-65
2022/10/20 00:20:44;;;;;;;15.27;10.47;;;11.30;1.00;;;;;;5079932;28;20453;-64
2022/10/20 00:23:14;;;;;;;10.60;8.87;;;11.30;1.00;;;;;;5100227;28;20455;-64
2022/10/20 00:25:42;;;;;;;15.07;9.03;;;11.20;1.00;;;;;;5100859;28;20492;-64
2022/10/20 00:28:14;;;;;;;11.83;9.23;;;11.20;1.00;;;;;;5100079;28;20471;-64
2022/10/20 00:30:41;;;;;;;11.60;9.70;;;11.30;1.00;;;;;;5100849;28;20464;-65
2022/10/20 00:33:08;;;;;;;11.63;9.30;;;11.30;1.00;;;;;;5099795;28;20445;-64
2022/10/20 00:35:41;;;;;;;14.83;9.60;;;11.30;1.00;;;;;;5100074;28;20865;-64
2022/10/20 00:38:10;;;;;;;10.93;8.90;;;11.30;1.00;;;;;;5100241;28;20489;-65
2022/10/20 00:40:37;;;;;;;10.03;9.00;;;11.30;1.00;;;;;;5100206;28;20907;-64
2022/10/20 00:43:05;;;;;;;12.70;10.57;;;11.30;1.00;;;;;;5100194;28;20437;-65
2022/10/20 00:45:33;;;;;;;10.53;9.47;;;11.30;1.00;;;;;;5100134;28;20828;-64
2022/10/20 00:48:06;;;;;;;11.17;9.03;;;11.30;1.00;;;;;;5100065;28;20880;-64
2022/10/20 00:50:38;;;;;;;10.40;8.90;;;11.20;1.00;;;;;;5099783;28;20439;-64
2022/10/20 00:53:06;;;;;;;14.13;9.73;;;11.20;1.00;;;;;;5100242;28;20472;-64
2022/10/20 00:55:37;;;;;;;16.10;9.40;;;11.20;1.00;;;;;;5100208;28;20461;-64
2022/10/20 00:58:05;;;;;;;10.90;9.00;;;11.20;1.00;;;;;;5099771;28;20760;-64
2022/10/20 01:00:34;;;;;;;10.80;9.30;;;11.20;1.00;;;;;;5099602;28;20466;-64
2022/10/20 01:03:02;;;;;;;10.87;9.77;;;11.20;1.00;;;;;;5099775;28;20902;-64
2022/10/20 01:05:29;;;;;;;13.97;9.70;;;11.20;1.00;;;;;;5099286;28;20485;-64
2022/10/20 01:07:56;;;;;;;10.50;9.03;;;11.30;1.00;;;;;;5099440;28;20499;-64
2022/10/20 01:10:29;;;;;;;11.40;9.17;;;11.20;1.00;;;;;;5099604;28;20562;-64
2022/10/20 01:13:03;;;;;;;13.53;9.40;;;11.20;1.00;;;;;;5099742;28;20548;-64
2022/10/20 01:15:42;;;;;;;16.37;10.00;;;11.30;1.00;;;;;;5099659;28;20459;-64
2022/10/20 01:18:47;;;;;;;21.00;10.27;;;11.30;1.00;;;;;;5098915;28;20460;-65
2022/10/20 01:21:45;;;;;;;17.70;9.57;;;11.40;1.00;;;;;;5100004;28;20456;-64
2022/10/20 01:24:46;;;;;;;14.10;9.87;;;11.40;1.00;;;;;;5098786;28;20435;-64
2022/10/20 01:27:34;;;;;;;17.73;10.17;;;11.50;1.00;;;;;;5099113;28;20926;-64
2022/10/20 01:30:12;;;;;;;12.20;9.70;;;11.40;1.00;;;;;;5098913;28;20439;-64
2022/10/20 01:33:05;;;;;;;15.17;9.63;;;11.40;1.00;;;;;;5099056;28;20439;-64
2022/10/20 01:35:44;;;;;;;11.77;9.43;;;11.40;1.00;;;;;;5090186;28;20439;-64
2022/10/20 01:38:22;;;;;;;14.17;9.80;;;11.50;1.00;;;;;;5078720;28;20875;-64
2022/10/20 01:40:56;;;;;;;10.53;9.50;;;11.50;1.00;;;;;;5078833;28;20495;-64
2022/10/20 01:43:30;;;;;;;12.37;10.23;;;11.50;1.00;;;;;;5078864;28;20465;-64
2022/10/20 01:46:00;;;;;;;10.90;9.67;;;11.50;1.00;;;;;;5078894;28;20493;-63
2022/10/20 01:48:32;;;;;;;12.57;9.90;;;11.50;1.00;;;;;;5078981;28;20958;-64
2022/10/20 01:51:01;;;;;;;10.83;9.50;;;11.50;1.00;;;;;;5078632;28;20722;-64
2022/10/20 01:53:28;;;;;;;12.10;9.30;;;11.60;1.00;;;;;;5078657;28;20514;-64
2022/10/20 01:55:58;;;;;;;10.27;9.00;;;11.60;1.00;;;;;;5078554;28;20457;-64
2022/10/20 01:59:11;;;;;;;11.73;8.90;;;11.60;1.00;;;;;;5078080;28;20557;-64
2022/10/20 02:01:53;;;;;;;11.67;10.40;;;11.60;1.00;;;;;;5078134;28;20466;-64
2022/10/20 02:04:28;;;;;;;10.53;8.50;;;11.60;1.00;;;;;;5078026;28;20436;-64
2022/10/20 02:07:01;;;;;;;16.50;9.07;;;11.60;1.00;;;;;;5078064;28;20475;-64
2022/10/20 02:09:34;;;;;;;10.77;9.20;;;11.50;1.00;;;;;;5078239;28;20432;-64
2022/10/20 02:12:05;;;;;;;11.43;8.87;;;11.50;1.00;;;;;;5080633;28;20517;-63
2022/10/20 02:14:35;;;;;;;10.23;8.67;;;11.50;1.00;;;;;;5098179;28;20460;-64
2022/10/20 02:17:06;;;;;;;11.63;8.60;;;11.60;1.00;;;;;;5097639;28;20465;-64
2022/10/20 02:19:37;;;;;;;13.70;8.23;;;11.60;1.00;;;;;;5098682;28;20467;-63
2022/10/20 02:22:06;;;;;;;9.33;7.90;;;11.70;1.00;;;;;;5098398;28;20460;-63
2022/10/20 02:24:37;;;;;;;12.70;8.70;;;11.70;1.00;;;;;;5098455;28;20464;-64
2022/10/20 02:27:08;;;;;;;9.90;8.90;;;11.80;1.00;;;;;;5098054;28;20493;-64
2022/10/20 02:29:42;;;;;;;11.50;8.60;;;11.80;1.00;;;;;;5098516;28;20464;-64
2022/10/20 02:32:12;;;;;;;9.03;8.00;;;11.70;1.00;;;;;;5097506;28;20464;-64
2022/10/20 02:34:39;;;;;;;14.60;8.53;;;11.80;1.00;;;;;;5095750;28;20768;-64
2022/10/20 02:37:07;;;;;;;10.07;8.03;;;11.80;1.00;;;;;;5077770;28;20462;-64
2022/10/20 02:39:36;;;;;;;12.60;9.00;;;11.70;1.00;;;;;;5077727;28;20531;-64
2022/10/20 02:42:03;;;;;;;9.23;7.70;;;11.70;1.00;;;;;;5077463;28;20461;-64
2022/10/20 02:44:30;;;;;;;10.20;9.10;;;11.60;1.00;;;;;;5077343;28;20472;-64
2022/10/20 02:46:59;;;;;;;9.87;7.87;;;11.60;1.00;;;;;;5077741;28;20497;-64
2022/10/20 02:49:26;;;;;;;13.50;9.27;;;11.70;1.00;;;;;;5095769;28;20456;-64
2022/10/20 02:51:53;;;;;;;10.90;8.40;;;11.70;1.00;;;;;;5096999;28;20467;-64
2022/10/20 02:54:21;;;;;;;11.93;9.10;;;11.70;1.00;;;;;;5097307;28;20470;-63
2022/10/20 02:56:48;;;;;;;11.40;8.70;;;11.70;1.00;;;;;;5097628;28;20461;-64
2022/10/20 02:59:17;;;;;;;10.30;8.50;;;11.70;1.00;;;;;;5097981;28;20449;-64
2022/10/20 03:01:47;;;;;;;10.50;9.00;;;11.80;1.00;;;;;;5097612;28;20453;-63
2022/10/20 03:04:16;;;;;;;10.37;8.90;;;11.80;1.00;;;;;;5097446;28;20467;-63
2022/10/20 03:06:43;;;;;;;11.53;9.03;;;11.80;1.00;;;;;;5097061;28;20860;-64
2022/10/20 03:09:10;;;;;;;11.30;8.80;;;11.80;1.00;;;;;;5097817;28;20470;-64
2022/10/20 03:11:37;;;;;;;9.97;8.87;;;11.90;1.00;;;;;;5097134;28;20463;-65
2022/10/20 03:14:05;;;;;;;11.03;8.63;;;11.90;1.00;;;;;;5095413;28;20461;-64
2022/10/20 03:16:37;;;;;;;9.97;8.97;;;12.00;1.00;;;;;;5095784;28;20463;-63
2022/10/20 03:19:06;;;;;;;9.43;8.50;;;12.00;1.00;;;;;;5096185;28;20467;-64
2022/10/20 03:21:38;;;;;;;11.10;7.77;;;12.00;1.00;;;;;;5095687;28;20466;-64
2022/10/20 03:24:11;;;;;;;8.70;7.57;;;12.10;1.00;;;;;;5096900;28;20737;-64
2022/10/20 03:26:39;;;;;;;8.67;7.87;;;12.10;1.00;;;;;;5096256;28;20506;-63
2022/10/20 03:29:06;;;;;;;10.43;9.37;;;12.10;1.00;;;;;;5102459;28;20466;-64
2022/10/20 03:31:33;;;;;;;10.73;8.67;;;12.10;1.00;;;;;;5104123;28;20461;-64
2022/10/20 03:34:03;;;;;;;11.73;7.60;;;12.00;1.00;;;;;;5103646;28;20443;-63
2022/10/20 03:36:30;;;;;;;9.07;8.17;;;12.00;1.00;;;;;;5103572;28;20459;-63
2022/10/20 03:38:59;;;;;;;10.33;8.60;;;12.00;1.00;;;;;;5104154;28;20529;-63
2022/10/20 03:41:26;;;;;;;9.57;8.57;;;12.00;1.00;;;;;;5104021;28;20748;-63
2022/10/20 03:43:55;;;;;;;9.60;8.50;;;12.00;1.00;;;;;;5103548;28;20455;-63
2022/10/20 03:46:24;;;;;;;10.20;8.07;;;12.10;1.00;;;;;;5103755;28;20785;-64
2022/10/20 03:48:51;;;;;;;12.83;7.77;;;12.10;1.00;;;;;;5103792;28;20464;-63
2022/10/20 03:51:19;;;;;;;9.87;8.27;;;12.10;1.00;;;;;;5103715;28;20460;-64
2022/10/20 03:53:46;;;;;;;11.03;9.03;;;12.10;1.00;;;;;;5103850;28;20824;-63
2022/10/20 03:56:18;;;;;;;9.47;8.20;;;12.10;1.00;;;;;;5103494;28;20463;-62
2022/10/20 03:58:46;;;;;;;10.33;8.20;;;12.10;1.00;;;;;;5103733;28;20470;-63
2022/10/20 04:01:15;;;;;;;9.23;8.27;;;12.20;1.00;;;;;;5103795;28;20460;-63
2022/10/20 04:03:45;;;;;;;12.90;9.60;;;12.30;1.00;;;;;;5104085;28;20456;-63
2022/10/20 04:06:12;;;;;;;10.40;8.40;;;12.30;1.00;;;;;;5102896;28;20488;-62
2022/10/20 04:08:39;;;;;;;8.17;7.30;;;12.20;1.00;;;;;;5103838;28;20499;-63
2022/10/20 04:11:07;;;;;;;9.13;7.40;;;12.30;1.00;;;;;;5103713;28;20470;-63
2022/10/20 04:13:36;;;;;;;9.30;7.20;;;12.20;1.00;;;;;;5103990;28;20466;-63
2022/10/20 04:16:03;;;;;;;7.90;7.07;;;12.20;1.00;;;;;;5103525;28;20503;-62
2022/10/20 04:18:33;;;;;;;12.83;8.57;;;12.30;1.00;;;;;;5103678;28;20480;-63
2022/10/20 04:21:01;;;;;;;9.20;6.70;;;12.30;1.00;;;;;;5103518;28;20463;-64
2022/10/20 04:23:28;;;;;;;9.43;6.90;;;12.20;1.00;;;;;;5103596;28;20478;-62
2022/10/20 04:25:56;;;;;;;10.07;7.90;;;12.20;1.00;;;;;;5103072;28;20495;-63
2022/10/20 04:28:23;;;;;;;8.30;7.50;;;12.30;99.90;;;;;;5103254;28;20554;-63
2022/10/20 04:30:52;;;;;;;8.10;6.70;;;12.30;99.90;;;;;;5103666;28;20464;-63
2022/10/20 04:33:19;;;;;;;10.67;7.37;;;12.30;99.90;;;;;;5103275;28;20456;-63
2022/10/20 04:35:46;;;;;;;11.10;7.17;;;12.20;99.90;;;;;;5102524;28;20460;-63
2022/10/20 04:38:13;;;;;;;9.60;7.60;;;12.20;99.90;;;;;;5103322;28;20868;-61
2022/10/20 04:40:40;;;;;;;8.20;6.93;;;12.30;99.90;;;;;;5099404;28;20500;-63
2022/10/20 04:43:10;;;;;;;8.30;7.30;;;12.30;99.90;;;;;;5100196;28;20467;-63
2022/10/20 04:45:38;;;;;;;8.70;7.10;;;12.30;99.90;;;;;;5100131;28;20464;-63
2022/10/20 04:48:07;;;;;;;7.60;6.80;;;12.30;99.90;;;;;;5100120;28;20471;-63
2022/10/20 04:50:34;;;;;;;8.83;7.93;;;12.30;99.90;;;;;;5099834;28;20467;-63
2022/10/20 04:53:02;;;;;;;8.30;7.07;;;12.30;99.90;;;;;;5099646;28;20777;-61
2022/10/20 04:55:29;;;;;;;9.60;6.97;;;12.30;99.90;;;;;;5100042;28;20877;-63
2022/10/20 04:57:59;;;;;;;9.17;7.43;;;12.30;99.90;;;;;;5099217;28;20478;-63
2022/10/20 05:00:28;;;;;;;9.43;7.37;;;12.30;99.90;;;;;;5098497;28;20452;-62
2022/10/20 05:02:56;;;;;;;8.13;7.20;;;12.20;99.90;;;;;;5098512;28;20525;-62
2022/10/20 05:05:24;;;;;;;14.77;7.20;;;12.20;99.90;;;;;;5098530;28;20457;-63
2022/10/20 05:07:52;;;;;;;9.27;6.80;;;12.20;99.90;;;;;;5098758;28;20554;-63
2022/10/20 05:10:19;;;;;;;9.60;8.60;;;12.20;99.90;;;;;;5099154;28;20466;-63
2022/10/20 05:12:49;;;;;;;11.00;8.50;;;12.20;99.90;;;;;;5099216;28;20464;-62
2022/10/20 05:15:20;;;;;;;8.33;6.93;;;12.20;99.90;;;;;;5099539;28;20441;-63
2022/10/20 05:17:48;;;;;;;11.00;7.17;;;12.30;99.90;;;;;;5097388;28;20550;-63
2022/10/20 05:20:15;;;;;;;8.10;6.73;;;12.30;99.90;;;;;;5095250;28;20728;-62
2022/10/20 05:22:44;;;;;;;8.80;7.47;;;12.30;99.90;;;;;;5076699;28;20472;-62
2022/10/20 05:25:11;;;;;;;10.13;7.20;;;12.20;99.90;;;;;;5078542;28;20461;-65
2022/10/20 05:27:38;;;;;;;8.53;7.60;;;12.30;99.90;;;;;;5095456;28;20489;-63
2022/10/20 05:30:06;;;;;;;8.63;7.73;;;12.30;99.90;;;;;;5098064;28;20464;-63
2022/10/20 05:32:33;;;;;;;13.83;7.83;;;12.30;99.90;;;;;;5098454;28;20434;-63
2022/10/20 05:35:01;;;;;;;9.20;7.33;;;12.30;99.90;;;;;;5098857;28;20460;-62
2022/10/20 05:37:28;;;;;;;8.87;6.60;;;12.30;99.90;;;;;;5097865;28;20472;-63
2022/10/20 05:39:58;;;;;;;12.00;8.30;;;12.30;99.90;;;;;;5096837;28;20467;-62
2022/10/20 05:42:25;;;;;;;9.63;7.77;;;12.30;99.90;;;;;;5096875;28;20432;-65
2022/10/20 05:44:53;;;;;;;10.70;7.47;;;12.30;99.90;;;;;;5097124;28;20467;-64
2022/10/20 05:47:20;;;;;;;10.20;8.80;;;12.30;99.90;;;;;;5097164;28;20474;-65
2022/10/20 05:49:48;;;;;;;9.73;7.77;;;12.20;99.90;;;;;;5096459;28;20459;-64
2022/10/20 05:52:16;;;;;;;12.20;7.97;;;12.20;99.90;;;;;;5097751;28;20434;-64
2022/10/20 05:54:43;;;;;;;8.37;7.47;;;12.20;99.90;;;;;;5097825;28;20563;-64
2022/10/20 05:57:12;;;;;;;11.50;8.80;;;12.10;99.90;;;;;;5097905;28;20467;-64
2022/10/20 05:59:39;;;;;;;8.83;7.63;;;12.10;99.90;;;;;;5097238;28;20456;-65
2022/10/20 06:02:06;;;;;;;9.00;7.67;;;12.10;99.90;;;;;;5096442;28;20435;-66
2022/10/20 06:04:34;;;;;;;10.30;8.83;;;12.10;99.90;;;;;;5096746;28;20468;-64
2022/10/20 06:07:01;;;;;;;10.20;8.03;;;12.10;99.90;;;;;;5096963;28;20496;-64
2022/10/20 06:09:29;;;;;;;10.97;8.70;;;12.10;99.90;;;;;;5098324;28;20464;-64
2022/10/20 06:11:56;;;;;;;9.50;8.50;;;12.10;99.90;;;;;;5098255;28;20541;-64
2022/10/20 06:14:28;;;;;;;10.30;9.20;;;12.10;99.90;;;;;;5098194;28;20461;-64
2022/10/20 06:16:56;;;;;;;11.17;8.50;;;12.10;99.90;;;;;;5098326;28;20462;-65
2022/10/20 06:19:28;;;;;;;14.03;9.23;;;12.10;99.90;;;;;;5098492;28;20906;-65
2022/10/20 06:21:55;;;;;;;14.10;9.20;;;12.10;99.90;;;;;;5097539;28;20882;-65
2022/10/20 06:24:22;;;;;;;11.10;9.30;;;12.10;99.90;;;;;;5097887;28;20460;-64
2022/10/20 06:26:50;;;;;;;10.50;9.40;;;12.10;99.90;;;;;;5098037;28;20459;-64
2022/10/20 06:29:20;;;;;;;10.17;9.17;;;12.10;99.90;;;;;;5098375;28;20811;-64
2022/10/20 06:31:52;;;;;;;12.50;9.90;;;12.10;99.90;;;;;;5097715;28;20467;-64
2022/10/20 06:34:23;;;;;;;12.70;9.87;;;12.10;99.90;;;;;;5096626;28;20884;-64
2022/10/20 06:36:52;;;;;;;11.03;9.30;;;12.10;99.90;;;;;;5096595;28;20461;-63
2022/10/20 06:39:21;;;;;;;11.10;9.97;;;12.20;99.90;;;;;;5097009;28;20453;-65
2022/10/20 06:41:53;;;;;;;10.67;9.53;;;12.20;99.90;;;;;;5096683;28;20475;-65
2022/10/20 06:44:22;;;;;;;10.77;9.67;;;12.20;99.90;;;;;;5096953;28;20460;-64
2022/10/20 06:46:52;;;;;;;11.73;9.27;;;12.20;99.90;;;;;;5097206;28;20488;-65
2022/10/20 06:49:19;;;;;;;14.43;9.87;;;12.20;99.90;;;;;;5097833;28;20460;-64
2022/10/20 06:51:47;;;;;;;11.40;10.20;;;12.20;99.90;;;;;;5097749;28;20460;-64
2022/10/20 06:54:14;;;;;;;10.20;9.20;;;12.30;99.90;;;;;;5097802;28;20475;-63
2022/10/20 06:56:41;;;;;;;13.33;9.57;;;12.30;99.90;;;;;;5097536;28;20463;-64
2022/10/20 06:59:09;;;;;;;12.63;9.83;;;12.40;99.90;;;;;;5097332;28;20461;-65
2022/10/20 07:01:38;;;;;;;18.53;9.47;;;12.40;99.90;;;;;;5097705;28;20468;-64
2022/10/20 07:04:10;;;;;;;10.47;9.03;;;12.40;99.90;;;;;;5095661;28;20491;-64
2022/10/20 07:06:39;;;;;;;8.53;7.60;;;12.40;99.90;;;;;;5096809;28;20852;-64
2022/10/20 07:09:11;;;;;;;11.00;9.10;;;12.40;99.90;;;;;;5095942;28;20464;-65
2022/10/20 07:11:38;;;;;;;11.73;9.93;;;12.50;99.90;;;;;;5095415;28;20464;-64
2022/10/20 07:14:10;;;;;;;9.80;8.80;;;12.50;99.90;;;;;;5096120;28;20465;-64
2022/10/20 07:16:44;;;;;;;14.03;9.40;;;12.50;99.90;;;;;;5097454;28;20938;-65
2022/10/20 07:19:14;;;;;;;11.17;9.97;;;12.60;99.90;;;;;;5097597;28;20847;-65
2022/10/20 07:21:41;;;;;;;10.93;9.80;;;12.60;99.90;;;;;;5097899;28;20463;-64
2022/10/20 07:24:09;;;;;;;10.30;9.13;;;12.60;99.90;;;;;;5096834;28;20558;-64
2022/10/20 07:26:38;;;;;;;13.00;8.80;;;12.70;99.90;;;;;;5096221;28;20456;-64
2022/10/20 07:29:06;;;;;;;13.40;8.13;;;12.70;99.90;;;;;;5096320;28;20888;-64
2022/10/20 07:31:36;;;;;;;10.83;9.73;;;12.80;99.90;;;;;;5097410;28;20891;-64
2022/10/20 07:34:07;;;;;;;9.87;8.83;;;12.80;99.90;;;;;;5097197;28;20957;-64
2022/10/20 07:36:36;;;;;;;10.00;9.00;;;12.90;99.90;;;;;;5097303;28;20446;-64
2022/10/20 07:39:06;;;;;;;11.43;10.10;;;12.90;99.90;;;;;;5097215;28;20465;-64
2022/10/20 07:41:38;;;;;;;10.33;8.73;;;13.00;99.90;;;;;;5097105;28;20517;-64
2022/10/20 07:44:06;;;;;;;9.73;8.70;;;13.00;99.90;;;;;;5097054;28;20464;-64
2022/10/20 07:46:35;;;;;;;10.57;8.73;;;13.10;99.90;;;;;;5096993;28;20497;-65
2022/10/20 07:49:03;;;;;;;10.70;9.60;;;13.10;99.90;;;;;;5095599;28;20464;-66
2022/10/20 07:51:33;;;;;;;10.40;8.60;;;13.20;99.90;;;;;;5097146;28;20467;-65
2022/10/20 07:54:03;;;;;;;11.17;9.60;;;13.30;99.90;;;;;;5096473;28;20471;-64
2022/10/20 07:56:33;;;;;;;12.73;8.70;;;13.40;99.90;;;;;;5096840;28;20461;-64
2022/10/20 07:59:08;;;;;;;9.37;8.47;;;13.50;99.90;;;;;;5097034;28;20723;-64
2022/10/20 08:01:35;;;;;;;10.63;8.37;;;13.60;99.90;;;;;;5097169;28;20460;-65
2022/10/20 08:04:05;;;;;;;9.00;8.10;;;13.60;99.90;;;;;;5097405;28;20467;-64
2022/10/20 08:06:33;;;;;;;10.63;8.87;;;13.70;99.90;;;;;;5096672;28;20577;-65
2022/10/20 08:09:02;;;;;;;12.93;9.50;;;13.60;99.90;;;;;;5097127;28;20492;-64
2022/10/20 08:11:29;;;;;;;9.70;8.67;;;13.60;99.90;;;;;;5097011;28;20499;-65
2022/10/20 08:13:56;;;;;;;10.53;8.10;;;13.60;99.90;;;;;;5096745;28;20886;-64
2022/10/20 08:16:23;;;;;;;9.87;8.80;;;13.60;99.90;;;;;;5099363;28;20504;-65
2022/10/20 08:18:50;;;;;;;10.07;8.77;;;13.60;99.90;;;;;;5100512;28;20517;-64
2022/10/20 08:21:20;;;;;;;13.30;9.70;;;13.70;99.90;;;;;;5100672;28;20456;-64
2022/10/20 08:23:49;;;;;;;11.83;8.57;;;13.70;99.90;;;;;;5100020;28;20431;-66
2022/10/20 08:26:22;;;;;;;13.40;9.87;;;13.80;99.90;;;;;;5099600;28;20481;-65
2022/10/20 08:28:50;;;;;;;10.87;8.70;;;13.80;99.90;;;;;;5098743;28;20498;-65
2022/10/20 08:31:22;;;;;;;13.83;9.43;;;13.80;99.90;;;;;;5099616;28;20448;-65
2022/10/20 08:33:49;;;;;;;17.50;10.20;;;13.90;99.90;;;;;;5099568;28;20541;-64
2022/10/20 08:36:17;;;;;;;9.23;8.10;;;14.10;99.90;;;;;;5099020;28;20464;-64
2022/10/20 08:38:44;;;;;;;9.33;8.03;;;14.20;99.90;;;;;;5099224;28;20459;-64
2022/10/20 08:41:19;;;;;;;9.80;8.77;;;14.40;99.90;;;;;;5100691;28;20529;-64
2022/10/20 08:43:48;;;;;;;10.60;8.57;;;14.60;99.90;;;;;;5100229;28;20802;-64
2022/10/20 08:46:19;;;;;;;10.27;9.07;;;14.60;99.90;;;;;;5099886;28;20470;-64
2022/10/20 08:48:49;;;;;;;10.77;9.03;;;14.60;99.90;;;;;;5099890;28;20528;-65
2022/10/20 08:51:24;;;;;;;10.60;8.60;;;14.60;99.90;;;;;;5100161;28;20558;-65
2022/10/20 08:53:54;;;;;;;13.33;8.77;;;14.60;99.90;;;;;;5099479;28;20466;-64
2022/10/20 08:56:25;;;;;;;10.40;9.30;;;14.50;99.90;;;;;;5099738;28;20467;-66
2022/10/20 08:58:53;;;;;;;9.90;8.90;;;14.60;99.90;;;;;;5099871;28;20465;-65
2022/10/20 09:01:22;;;;;;;12.13;8.60;;;14.60;99.90;;;;;;5099967;28;20893;-64
2022/10/20 09:03:55;;;;;;;8.53;7.73;;;14.80;99.90;;;;;;5098746;28;20456;-64
2022/10/20 09:06:23;;;;;;;11.83;8.73;;;14.90;99.90;;;;;;5099292;28;20492;-65
2022/10/20 09:08:51;;;;;;;9.77;8.77;;;14.90;99.90;;;;;;5099292;28;20970;-64
2022/10/20 09:11:23;;;;;;;9.70;8.77;;;14.90;99.90;;;;;;5099942;28;20456;-64
2022/10/20 09:13:56;;;;;;;9.67;8.23;;;14.80;99.90;;;;;;5099165;28;20464;-64
2022/10/20 09:16:27;;;;;;;10.27;9.13;;;14.90;99.90;;;;;;5099080;28;20492;-65
2022/10/20 09:18:58;;;;;;;10.23;9.20;;;14.80;99.90;;;;;;5080793;28;20455;-64
2022/10/20 09:21:25;;;;;;;9.20;8.20;;;14.80;99.90;;;;;;5098976;28;20456;-64
2022/10/20 09:24:00;;;;;;;10.37;9.27;;;14.90;99.90;;;;;;5098604;28;20431;-65
2022/10/20 09:26:34;;;;;;;14.40;8.10;;;15.20;99.90;;;;;;5096750;28;20906;-64
2022/10/20 09:29:08;;;;;;;9.30;8.40;;;15.40;99.90;;;;;;5098304;28;20549;-64
2022/10/20 09:31:41;;;;;;;9.13;8.13;;;15.30;99.90;;;;;;5098546;28;20780;-64
2022/10/20 09:34:23;;;;;;;11.73;7.90;;;15.20;99.90;;;;;;5098315;28;20477;-64
2022/10/20 09:36:51;;;;;;;10.13;8.63;;;15.00;99.90;;;;;;5098566;28;20871;-64
2022/10/20 09:39:23;;;;;;;12.47;8.57;;;15.00;99.90;;;;;;5097542;28;20892;-64
2022/10/20 09:41:59;;;;;;;9.40;8.50;;;14.80;99.90;;;;;;5098178;28;20974;-65
2022/10/20 09:44:27;;;;;;;10.23;8.30;;;14.70;99.90;;;;;;5097061;28;20468;-64
2022/10/20 09:46:55;;;;;;;9.93;8.93;;;14.60;99.90;;;;;;5097377;28;20447;-64
2022/10/20 09:49:28;;;;;;;9.70;8.73;;;14.60;99.90;;;;;;5099111;28;20495;-64
2022/10/20 09:51:56;;;;;;;10.00;9.10;;;14.50;99.90;;;;;;5096713;28;20471;-64
2022/10/20 09:54:26;;;;;;;11.30;10.13;;;14.50;99.90;;;;;;5098394;28;20437;-63
2022/10/20 09:56:54;;;;;;;12.60;8.67;;;14.40;99.90;;;;;;5098723;28;20460;-64
2022/10/20 09:59:25;;;;;;;13.73;8.90;;;14.40;99.90;;;;;;5099044;28;20497;-64
2022/10/20 10:01:59;;;;;;;9.90;8.87;;;14.30;99.90;;;;;;5098800;28;20952;-64
2022/10/20 10:04:33;;;;;;;9.90;8.53;;;14.30;99.90;;;;;;5097872;28;20486;-65
2022/10/20 10:07:00;;;;;;;17.50;8.70;;;14.20;99.90;;;;;;5098247;28;20489;-64
2022/10/20 10:09:33;;;;;;;15.07;9.67;;;14.20;99.90;;;;;;5098374;28;21123;-65
2022/10/20 10:12:03;;;;;;;10.60;8.90;;;14.10;99.90;;;;;;5098370;28;20545;-64
2022/10/20 10:14:33;;;;;;;11.53;9.67;;;14.20;99.90;;;;;;5098069;28;20916;-65
2022/10/20 10:17:02;;;;;;;10.17;9.17;;;14.20;99.90;;;;;;5098190;28;20460;-64
2022/10/20 10:19:31;;;;;;;11.13;9.30;;;14.10;99.90;;;;;;5097394;28;20463;-64
2022/10/20 10:22:01;;;;;;;9.50;8.50;;;14.20;99.90;;;;;;5096776;28;20472;-65
2022/10/20 10:24:39;;;;;;;11.63;10.00;;;14.30;99.90;;;;;;5098193;28;20433;-65
2022/10/20 10:27:19;;;;;;;12.40;9.40;;;14.40;99.90;;;;;;5098675;28;20460;-64
2022/10/20 10:29:47;;;;;;;11.27;9.17;;;14.40;99.90;;;;;;5098034;28;20438;-64
2022/10/20 10:32:17;;;;;;;10.70;9.60;;;14.60;99.90;;;;;;5096782;28;20858;-64
2022/10/20 10:35:00;;;;;;;10.30;8.33;;;14.50;99.90;;;;;;5095878;28;20456;-64
2022/10/20 10:37:28;;;;;;;9.37;8.47;;;14.60;99.90;;;;;;5096267;28;20462;-64
2022/10/20 10:39:55;;;;;;;10.30;8.70;;;14.60;99.90;;;;;;5096814;28;20901;-65
2022/10/20 10:43:04;;;;;;;13.13;8.43;;;14.70;99.90;;;;;;5096300;28;20468;-64
2022/10/20 10:45:44;;;;;;;10.27;7.90;;;14.80;99.90;;;;;;5096820;28;20467;-64
2022/10/20 10:48:49;;;;;;;9.90;8.90;;;14.90;99.90;;;;;;5095968;28;20459;-65
2022/10/20 10:51:26;;;;;;;10.77;9.63;;;14.90;99.90;;;;;;5097668;28;20439;-64
2022/10/20 10:54:07;;;;;;;17.73;9.90;;;15.00;99.90;;;;;;5097932;28;20474;-65
2022/10/20 10:56:43;;;;;;;11.17;9.17;;;15.10;99.90;;;;;;5097270;28;20464;-65
2022/10/20 10:59:21;;;;;;;12.60;8.90;;;15.30;99.90;;;;;;5097677;28;20541;-64
2022/10/20 11:02:03;;;;;;;14.13;10.43;;;15.30;99.90;;;;;;5097478;28;20484;-65
2022/10/20 11:05:00;;;;;;;13.27;10.10;;;15.10;99.90;;;;;;5096711;28;20499;-65
2022/10/20 11:07:36;;;;;;;10.57;9.23;;;15.00;99.90;;;;;;5092386;28;20777;-65
2022/10/20 11:10:10;;;;;;;12.77;9.47;;;14.90;99.90;;;;;;5094644;28;20534;-64
2022/10/20 11:13:12;;;;;;;11.33;9.47;;;14.90;99.90;;;;;;5088794;28;20468;-65
2022/10/20 11:15:50;;;;;;;13.60;10.53;;;14.90;99.90;;;;;;5087885;28;20559;-65
2022/10/20 11:18:31;;;;;;;11.00;9.80;;;14.80;99.90;;;;;;5094130;28;20451;-65
2022/10/20 11:21:12;;;;;;;11.43;10.23;;;14.80;99.90;;;;;;5093021;28;20525;-66
2022/10/20 11:24:13;;;;;;;13.00;9.97;;;14.90;99.90;;;;;;5094291;28;20445;-65
2022/10/20 11:26:44;;;;;;;12.37;10.70;;;14.90;99.90;;;;;;5091461;28;20482;-65
2022/10/20 11:29:16;;;;;;;11.77;10.43;;;14.90;99.90;;;;;;5091899;28;20492;-65
2022/10/20 11:31:53;;;;;;;15.63;10.30;;;14.90;99.90;;;;;;5093054;28;20784;-65
2022/10/20 11:34:27;;;;;;;12.53;11.03;;;14.70;99.90;;;;;;5092699;28;20915;-64
2022/10/20 11:37:02;;;;;;;12.17;10.20;;;14.60;99.90;;;;;;5095644;28;20876;-64
2022/10/20 11:39:35;;;;;;;14.27;10.93;;;14.60;99.90;;;;;;5093890;28;20456;-64
2022/10/20 11:42:17;;;;;;;11.57;10.37;;;14.60;99.90;;;;;;5090690;28;20918;-65
2022/10/20 11:44:45;;;;;;;21.27;11.80;;;14.60;99.90;;;;;;5092263;28;20483;-66
2022/10/20 11:47:16;;;;;;;11.83;10.10;;;14.70;99.90;;;;;;5093901;28;20551;-65
2022/10/20 11:49:44;;;;;;;11.93;10.77;;;14.50;99.90;;;;;;5094170;28;20583;-64
2022/10/20 11:52:50;;;;;;;12.47;11.17;;;14.50;1.00;;;;;;5099114;28;20867;-65
2022/10/20 11:55:48;;;;;;;14.43;11.73;;;14.50;1.00;;;;;;5099259;28;20423;-65
2022/10/20 11:58:34;;;;;;;14.70;11.40;;;14.50;1.00;;;;;;5098928;28;20464;-65
2022/10/20 12:01:22;;;;;;;14.17;11.43;;;14.40;1.00;;;;;;5099493;28;20430;-65
2022/10/20 12:04:25;;;;;;;13.27;11.70;;;14.30;1.00;;;;;;5097700;28;20880;-65
2022/10/20 12:07:17;;;;;;;13.37;12.07;;;14.20;1.00;;;;;;5069575;28;20602;-66
2022/10/20 12:10:14;;;;;;;13.47;12.07;;;14.20;1.00;;;;;;5043098;28;20504;-67
2022/10/20 12:12:51;;;;;;;13.23;11.90;;;14.10;1.00;;;;;;5050018;28;20539;-65
2022/10/20 12:15:26;;;;;;;13.33;11.93;;;14.10;1.00;;;;;;5078081;28;20457;-66
2022/10/20 12:18:04;;;;;;;17.00;12.13;;;14.10;1.00;;;;;;5078479;28;20452;-66
2022/10/20 12:21:00;;;;;;;16.23;13.50;;;14.10;1.00;;;;;;5078929;28;20461;-67
2022/10/20 12:23:53;;;;;;;15.10;13.50;;;14.10;1.00;;;;;;5079069;28;20836;-67
2022/10/20 12:27:08;;;;;;;15.83;13.10;;;14.10;1.00;;;;;;5079666;28;20467;-66
2022/10/20 12:30:00;;;;;;;18.10;12.27;;;14.10;1.00;;;;;;5047476;28;20492;-65
2022/10/20 12:32:53;;;;;;;15.93;12.23;;;14.10;1.00;;;;;;5086703;28;20501;-66
2022/10/20 12:35:58;;;;;;;14.90;13.20;;;14.00;1.00;;;;;;5100212;28;20460;-65
2022/10/20 12:38:25;;;;;;;14.53;12.70;;;14.00;1.00;;;;;;5100443;28;20466;-64
2022/10/20 12:40:58;;;;;;;14.03;12.53;;;14.10;1.00;;;;;;5099932;28;20445;-63
2022/10/20 12:43:36;;;;;;;15.60;13.93;;;14.10;1.00;;;;;;5100280;28;20467;-62
2022/10/20 12:46:23;;;;;;;17.40;13.77;;;14.00;1.00;;;;;;5100322;28;20481;-62
2022/10/20 12:48:58;;;;;;;14.77;13.20;;;14.10;1.00;;;;;;5100047;28;20487;-62
2022/10/20 12:51:36;;;;;;;18.00;13.00;;;14.10;2.60;;;;;;5100241;28;20517;-63
2022/10/20 12:54:14;;;;;;;17.90;13.37;;;13.90;2.20;;;;;;5099409;28;20462;-61
2022/10/20 12:56:42;;;;;;;16.20;11.80;;;13.90;94.00;;;;;;5099960;28;20892;-62
2022/10/20 12:59:49;;;;;;;16.40;13.27;;;13.80;99.90;;;;;;5099054;28;20491;-61
2022/10/20 13:02:42;;;;;;;17.87;13.73;;;13.90;99.90;;;;;;5098144;28;20467;-60
2022/10/20 13:05:28;;;;;;;14.07;12.67;;;13.90;99.90;;;;;;5098688;28;20932;-62
2022/10/20 13:08:34;;;;;;;15.70;12.53;;;13.90;1.00;;;;;;5098257;28;20762;-62